createdAt,value
2019-02-18T00:00:56.232Z,107.07
2019-02-18T00:03:26.142Z,107.03
2019-02-18T00:05:54.083Z,108.47
2019-02-18T00:08:22.087Z,110.23
2019-02-18T00:10:50.039Z,108.17
2019-02-18T00:13:17.967Z,106.73
2019-02-18T00:15:45.814Z,110.57
2019-02-18T00:18:13.708Z,113.63
2019-02-18T00:20:41.712Z,108.43
2019-02-18T00:23:09.729Z,106.93
2019-02-18T00:25:37.593Z,102.30
2019-02-18T00:28:05.494Z,100.70
2019-02-18T00:30:35.301Z,103.93
2019-02-18T00:33:03.138Z,113.00
2019-02-18T00:35:31.009Z,115.57
2019-02-18T00:37:58.965Z,116.47
2019-02-18T00:40:26.881Z,117.50
2019-02-18T00:42:54.742Z,116.17
2019-02-18T00:45:22.549Z,112.17
2019-02-18T00:47:50.580Z,112.63
2019-02-18T00:50:18.392Z,108.90
2019-02-18T00:52:46.368Z,106.13
2019-02-18T00:55:14.324Z,102.77
2019-02-18T00:57:42.266Z,96.10
2019-02-18T01:00:11.145Z,93.93
2019-02-18T01:02:39.278Z,91.17
2019-02-18T01:05:07.521Z,93.57
2019-02-18T01:07:35.403Z,98.27
2019-02-18T01:10:03.442Z,96.17
2019-02-18T01:12:31.535Z,94.37
2019-02-18T01:14:59.451Z,91.60
2019-02-18T01:17:27.255Z,86.70
2019-02-18T01:19:55.051Z,86.80
2019-02-18T01:22:22.897Z,85.50
2019-02-18T01:24:52.133Z,87.53
2019-02-18T01:27:20.007Z,79.67
2019-02-18T01:29:47.871Z,86.57
2019-02-18T01:32:15.782Z,90.27
2019-02-18T01:34:43.563Z,92.97
2019-02-18T01:37:11.696Z,98.97
2019-02-18T01:39:39.566Z,103.57
2019-02-18T01:42:07.595Z,105.40
2019-02-18T01:44:35.454Z,101.33
2019-02-18T01:47:03.381Z,106.30
2019-02-18T01:49:31.257Z,106.43
2019-02-18T01:51:59.248Z,105.07
2019-02-18T01:54:27.044Z,105.60
2019-02-18T01:56:54.936Z,102.17
2019-02-18T01:59:22.782Z,99.40
2019-02-18T02:01:50.604Z,99.17
2019-02-18T02:04:18.513Z,97.00
2019-02-18T02:06:46.331Z,97.40
2019-02-18T02:09:15.325Z,93.87
2019-02-18T02:11:43.340Z,93.00
2019-02-18T02:14:11.294Z,98.10
2019-02-18T02:16:39.221Z,95.50
2019-02-18T02:19:07.084Z,92.70
2019-02-18T02:21:34.942Z,85.50
2019-02-18T02:24:02.911Z,88.53
2019-02-18T02:26:30.776Z,87.40
2019-02-18T02:28:58.729Z,84.23
2019-02-18T02:31:26.667Z,85.83
2019-02-18T02:33:54.690Z,81.77
2019-02-18T02:36:22.703Z,83.90
2019-02-18T02:38:50.533Z,89.50
2019-02-18T02:41:18.485Z,89.33
2019-02-18T02:43:46.435Z,90.37
2019-02-18T02:46:14.232Z,89.30
2019-02-18T02:48:42.270Z,90.33
2019-02-18T02:51:10.186Z,92.17
2019-02-18T02:53:38.018Z,90.47
2019-02-18T02:56:05.888Z,83.60
2019-02-18T02:58:33.890Z,84.67
2019-02-18T03:01:01.806Z,83.47
2019-02-18T03:03:29.706Z,86.40
2019-02-18T03:05:59.405Z,88.33
2019-02-18T03:08:27.374Z,93.53
2019-02-18T03:10:55.240Z,90.43
2019-02-18T03:13:23.104Z,86.73
2019-02-18T03:15:51.030Z,90.00
2019-02-18T03:18:19.082Z,90.47
2019-02-18T03:20:47.025Z,88.40
2019-02-18T03:23:14.862Z,92.03
2019-02-18T03:25:44.212Z,91.23
2019-02-18T03:28:53.876Z,88.77
2019-02-18T03:31:24.726Z,89.37
2019-02-18T03:34:06.225Z,88.93
2019-02-18T03:36:34.013Z,86.77
2019-02-18T03:39:02.368Z,92.67
2019-02-18T03:41:32.284Z,87.03
2019-02-18T03:44:00.190Z,88.70
2019-02-18T03:46:28.043Z,87.23
2019-02-18T03:48:56.064Z,84.60
2019-02-18T03:51:23.956Z,88.90
2019-02-18T03:53:51.977Z,89.47
2019-02-18T03:56:19.963Z,86.83
2019-02-18T03:58:48.103Z,89.80
2019-02-18T04:01:17.568Z,92.10
2019-02-18T04:03:45.462Z,90.93
2019-02-18T04:06:13.385Z,90.30
2019-02-18T04:08:43.284Z,90.30
2019-02-18T04:11:11.186Z,87.87
2019-02-18T04:13:39.017Z,83.67
2019-02-18T04:16:06.899Z,81.77
2019-02-18T04:18:38.304Z,79.90
2019-02-18T04:21:06.407Z,83.07
2019-02-18T04:23:35.741Z,80.17
2019-02-18T04:26:03.738Z,82.17
2019-02-18T04:28:31.645Z,86.73
2019-02-18T04:30:59.605Z,83.93
2019-02-18T04:33:27.510Z,87.77
2019-02-18T04:35:55.379Z,91.10
2019-02-18T04:38:23.286Z,85.80
2019-02-18T04:40:51.139Z,85.67
2019-02-18T04:43:19.032Z,86.27
2019-02-18T04:45:47.000Z,89.07
2019-02-18T04:48:14.870Z,84.70
2019-02-18T04:50:42.810Z,88.90
2019-02-18T04:53:10.645Z,92.80
2019-02-18T04:55:38.548Z,90.93
2019-02-18T04:58:06.467Z,93.37
2019-02-18T05:00:34.292Z,100.53
2019-02-18T05:03:02.321Z,101.03
2019-02-18T05:05:30.133Z,96.67
2019-02-18T05:07:57.971Z,95.30
2019-02-18T05:10:25.792Z,96.57
2019-02-18T05:12:53.676Z,96.83
2019-02-18T05:15:21.480Z,101.70
2019-02-18T05:17:49.356Z,105.33
2019-02-18T05:20:17.198Z,103.57
2019-02-18T05:22:45.044Z,101.57
2019-02-18T05:25:13.111Z,97.50
2019-02-18T05:27:41.119Z,97.97
2019-02-18T05:30:09.195Z,101.00
2019-02-18T05:32:37.194Z,102.97
2019-02-18T05:35:05.406Z,98.87
2019-02-18T05:37:34.372Z,99.93
2019-02-18T05:40:02.362Z,102.30
2019-02-18T05:42:31.411Z,104.67
2019-02-18T05:44:59.471Z,107.10
2019-02-18T05:47:27.373Z,106.23
2019-02-18T05:49:55.262Z,106.67
2019-02-18T05:52:23.218Z,102.17
2019-02-18T05:54:53.396Z,102.83
2019-02-18T05:57:22.915Z,100.27
2019-02-18T05:59:51.174Z,100.87
2019-02-18T06:02:20.842Z,104.87
2019-02-18T06:04:48.770Z,102.73
2019-02-18T06:07:16.742Z,107.43
2019-02-18T06:09:44.528Z,107.53
2019-02-18T06:12:12.377Z,105.67
2019-02-18T06:14:40.331Z,110.37
2019-02-18T06:17:08.230Z,111.47
2019-02-18T06:19:36.039Z,115.80
2019-02-18T06:22:04.138Z,116.13
2019-02-18T06:24:32.093Z,112.13
2019-02-18T06:27:00.085Z,109.70
2019-02-18T06:29:29.717Z,113.30
2019-02-18T06:31:57.542Z,111.30
2019-02-18T06:34:25.296Z,112.57
2019-02-18T06:36:53.131Z,113.60
2019-02-18T06:39:20.897Z,110.50
2019-02-18T06:41:48.960Z,105.60
2019-02-18T06:44:19.741Z,102.57
2019-02-18T06:46:58.080Z,103.60
2019-02-18T06:49:27.418Z,103.93
2019-02-18T06:51:55.422Z,103.60
2019-02-18T06:54:23.318Z,108.20
2019-02-18T06:57:06.920Z,110.37
2019-02-18T06:59:54.347Z,110.53
2019-02-18T07:02:26.655Z,99.93
2019-02-18T07:05:13.950Z,102.80
2019-02-18T07:07:48.106Z,101.50
2019-02-18T07:10:28.541Z,100.40
2019-02-18T07:12:56.384Z,101.13
2019-02-18T07:15:24.211Z,111.20
2019-02-18T07:17:52.047Z,108.10
2019-02-18T07:20:20.291Z,108.30
2019-02-18T07:22:48.300Z,106.23
2019-02-18T07:25:16.639Z,97.30
2019-02-18T07:27:44.588Z,94.73
2019-02-18T07:30:14.356Z,95.13
2019-02-18T07:32:42.518Z,100.40
2019-02-18T07:35:10.638Z,98.03
2019-02-18T07:37:38.532Z,99.07
2019-02-18T07:40:07.839Z,98.90
2019-02-18T07:42:35.736Z,103.47
2019-02-18T07:45:04.041Z,102.13
2019-02-18T07:47:32.075Z,103.57
2019-02-18T07:50:00.018Z,104.93
2019-02-18T07:52:27.941Z,105.30
2019-02-18T07:54:55.937Z,103.20
2019-02-18T07:57:24.342Z,101.37
2019-02-18T07:59:52.220Z,101.20
2019-02-18T08:02:20.198Z,97.47
2019-02-18T08:04:48.068Z,98.90
2019-02-18T08:07:15.924Z,100.13
2019-02-18T08:09:44.277Z,100.43
2019-02-18T08:12:12.396Z,99.73
2019-02-18T08:14:40.374Z,98.27
2019-02-18T08:17:08.395Z,97.97
2019-02-18T08:19:37.796Z,95.17
2019-02-18T08:22:05.714Z,94.20
2019-02-18T08:24:33.786Z,87.63
2019-02-18T08:27:01.731Z,86.70
2019-02-18T08:29:29.776Z,84.27
2019-02-18T08:31:57.789Z,82.10
2019-02-18T08:34:25.627Z,80.50
2019-02-18T08:36:53.546Z,80.27
2019-02-18T08:39:21.535Z,77.60
2019-02-18T08:41:49.607Z,75.93
2019-02-18T08:44:17.520Z,76.87
2019-02-18T08:46:45.353Z,76.77
2019-02-18T08:49:13.643Z,74.73
2019-02-18T08:51:41.830Z,74.50
2019-02-18T08:54:09.772Z,75.83
2019-02-18T08:56:37.847Z,76.73
2019-02-18T08:59:05.866Z,76.43
2019-02-18T09:01:33.802Z,71.83
2019-02-18T09:04:01.809Z,72.90
2019-02-18T09:06:29.704Z,72.70
2019-02-18T09:08:57.683Z,70.43
2019-02-18T09:11:25.634Z,75.63
2019-02-18T09:13:53.498Z,68.10
2019-02-18T09:16:21.529Z,72.43
2019-02-18T09:18:49.669Z,71.43
2019-02-18T09:21:17.580Z,64.23
2019-02-18T09:23:59.791Z,67.50
2019-02-18T09:26:27.833Z,62.57
2019-02-18T09:28:56.066Z,65.70
2019-02-18T09:31:27.768Z,68.43
2019-02-18T09:33:56.123Z,59.93
2019-02-18T09:36:25.889Z,64.63
2019-02-18T09:38:54.442Z,61.73
2019-02-18T09:41:22.301Z,63.00
2019-02-18T09:43:50.376Z,60.50
2019-02-18T09:46:18.349Z,64.50
2019-02-18T09:48:46.287Z,62.53
2019-02-18T09:51:14.137Z,64.37
2019-02-18T09:53:43.190Z,59.50
2019-02-18T09:56:11.509Z,56.23
2019-02-18T09:58:39.366Z,59.90
2019-02-18T10:01:07.261Z,58.53
2019-02-18T10:03:35.219Z,56.67
2019-02-18T10:06:03.168Z,57.97
2019-02-18T10:08:31.067Z,59.20
2019-02-18T10:10:59.035Z,57.83
2019-02-18T10:13:26.977Z,60.50
2019-02-18T10:15:55.009Z,58.57
2019-02-18T10:18:22.965Z,59.40
2019-02-18T10:20:50.863Z,57.20
2019-02-18T10:23:18.747Z,52.63
2019-02-18T10:25:46.598Z,52.17
2019-02-18T10:28:14.551Z,48.03
2019-02-18T10:30:42.566Z,44.17
2019-02-18T10:33:10.468Z,46.30
2019-02-18T10:35:38.385Z,43.80
2019-02-18T10:38:06.288Z,46.73
2019-02-18T10:40:34.233Z,40.67
2019-02-18T10:43:02.258Z,41.47
2019-02-18T10:45:30.160Z,43.13
2019-02-18T10:47:58.203Z,41.00
2019-02-18T10:50:26.105Z,38.67
2019-02-18T10:52:53.997Z,36.43
2019-02-18T10:55:22.021Z,37.00
2019-02-18T10:57:50.024Z,39.10
2019-02-18T11:00:17.875Z,40.33
2019-02-18T11:02:45.865Z,40.67
2019-02-18T11:05:13.717Z,40.73
2019-02-18T11:07:41.584Z,38.90
2019-02-18T11:10:11.633Z,36.80
2019-02-18T11:12:39.506Z,36.87
2019-02-18T11:15:08.226Z,27.67
2019-02-18T11:17:38.920Z,29.87
2019-02-18T11:20:08.476Z,28.27
2019-02-18T11:22:36.513Z,30.00
2019-02-18T11:25:05.234Z,29.33
2019-02-18T11:27:33.146Z,30.37
2019-02-18T11:30:01.399Z,33.90
2019-02-18T11:32:29.588Z,28.73
2019-02-18T11:34:57.516Z,30.10
2019-02-18T11:37:25.263Z,32.33
2019-02-18T11:39:53.191Z,30.57
2019-02-18T11:42:21.227Z,29.60
2019-02-18T11:44:49.313Z,27.50
2019-02-18T11:47:17.170Z,32.63
2019-02-18T11:49:45.453Z,32.60
2019-02-18T11:52:13.373Z,35.80
2019-02-18T11:54:41.401Z,37.47
2019-02-18T11:57:09.329Z,37.77
2019-02-18T11:59:37.306Z,43.27
2019-02-18T12:02:06.226Z,44.27
2019-02-18T12:04:34.700Z,39.90
2019-02-18T12:07:02.801Z,48.57
2019-02-18T12:09:31.900Z,42.93
2019-02-18T12:12:00.752Z,42.40
2019-02-18T12:14:28.547Z,42.53
2019-02-18T12:16:56.718Z,46.37
2019-02-18T12:19:24.659Z,40.63
2019-02-18T12:21:53.095Z,36.03
2019-02-18T12:24:20.962Z,44.87
2019-02-18T12:26:48.880Z,43.57
2019-02-18T12:29:26.062Z,38.03
2019-02-18T12:31:46.521Z,32.43
2019-02-18T12:34:14.657Z,28.47
2019-02-18T12:36:42.693Z,32.07
2019-02-18T12:39:14.240Z,27.87
2019-02-18T12:41:48.616Z,26.27
2019-02-18T12:44:14.887Z,22.03
2019-02-18T12:46:42.895Z,21.83
2019-02-18T12:49:10.903Z,22.80
2019-02-18T12:51:38.839Z,21.97
2019-02-18T12:54:07.033Z,19.30
2019-02-18T12:56:35.148Z,27.27
2019-02-18T12:59:03.096Z,22.83
2019-02-18T13:01:31.190Z,26.00
2019-02-18T13:03:59.163Z,25.77
2019-02-18T13:06:26.964Z,27.90
2019-02-18T13:08:54.997Z,28.57
2019-02-18T13:11:24.261Z,26.33
2019-02-18T13:13:52.621Z,27.73
2019-02-18T13:16:20.497Z,25.93
2019-02-18T13:18:48.607Z,24.73
2019-02-18T13:21:16.431Z,24.70
2019-02-18T13:23:45.510Z,23.00
2019-02-18T13:26:13.406Z,22.90
2019-02-18T13:28:41.315Z,23.83
2019-02-18T13:31:09.307Z,23.30
2019-02-18T13:33:37.240Z,24.47
2019-02-18T13:36:11.184Z,23.37
2019-02-18T13:38:39.090Z,23.60
2019-02-18T13:41:07.086Z,26.23
2019-02-18T13:43:35.018Z,26.37
2019-02-18T13:46:02.944Z,23.50
2019-02-18T13:48:31.208Z,21.90
2019-02-18T13:50:59.062Z,25.70
2019-02-18T13:53:27.035Z,31.00
2019-02-18T13:55:55.104Z,30.67
2019-02-18T13:58:22.979Z,31.43
2019-02-18T14:00:50.862Z,34.07
2019-02-18T14:03:18.803Z,34.70
2019-02-18T14:05:46.576Z,39.00
2019-02-18T14:08:14.577Z,39.33
2019-02-18T14:10:42.458Z,38.40
2019-02-18T14:13:10.453Z,38.57
2019-02-18T14:15:38.313Z,38.33
2019-02-18T14:18:06.451Z,37.40
2019-02-18T14:20:34.421Z,37.77
2019-02-18T14:23:02.454Z,39.13
2019-02-18T14:25:30.414Z,40.90
2019-02-18T14:27:58.444Z,42.23
2019-02-18T14:30:26.443Z,40.87
2019-02-18T14:32:54.507Z,40.67
2019-02-18T14:35:22.303Z,39.33
2019-02-18T14:37:50.544Z,40.10
2019-02-18T14:40:19.706Z,37.47
2019-02-18T14:42:47.574Z,36.53
2019-02-18T14:45:15.607Z,39.27
2019-02-18T14:47:43.642Z,40.10
2019-02-18T14:50:11.907Z,39.40
2019-02-18T14:52:39.956Z,38.27
2019-02-18T14:55:09.192Z,38.23
2019-02-18T14:57:37.157Z,38.57
2019-02-18T15:00:15.639Z,38.63
2019-02-18T15:02:43.637Z,35.70
2019-02-18T15:05:11.696Z,37.90
2019-02-18T15:07:40.807Z,35.80
2019-02-18T15:10:09.411Z,37.50
2019-02-18T15:12:37.446Z,38.30
2019-02-18T15:15:05.734Z,38.27
2019-02-18T15:17:33.801Z,38.90
2019-02-18T15:20:01.913Z,38.00
2019-02-18T15:22:29.994Z,41.13
2019-02-18T15:24:58.344Z,42.23
2019-02-18T15:27:26.493Z,43.80
2019-02-18T15:29:54.478Z,46.87
2019-02-18T15:32:24.009Z,55.30
2019-02-18T15:34:51.826Z,54.17
2019-02-18T15:37:21.455Z,54.07
2019-02-18T15:39:49.523Z,56.63
2019-02-18T15:42:17.585Z,53.00
2019-02-18T15:44:45.736Z,50.67
2019-02-18T15:47:13.798Z,49.57
2019-02-18T15:49:42.111Z,50.37
2019-02-18T15:52:10.186Z,46.53
2019-02-18T15:54:39.334Z,45.60
2019-02-18T15:57:07.451Z,46.50
2019-02-18T15:59:35.437Z,41.10
2019-02-18T16:02:03.944Z,37.63
2019-02-18T16:04:31.810Z,37.33
2019-02-18T16:07:01.068Z,52.20
2019-02-18T16:09:28.976Z,52.57
2019-02-18T16:12:02.268Z,71.13
2019-02-18T16:14:30.116Z,65.20
2019-02-18T16:16:58.106Z,62.53
2019-02-18T16:19:26.040Z,61.50
2019-02-18T16:21:53.993Z,53.00
2019-02-18T16:24:23.078Z,73.40
2019-02-18T16:26:50.885Z,110.63
2019-02-18T16:29:19.297Z,53.17
2019-02-18T16:31:48.396Z,45.03
2019-02-18T16:34:16.324Z,41.63
2019-02-18T16:36:44.302Z,40.33
2019-02-18T16:39:12.543Z,40.80
2019-02-18T16:41:40.539Z,40.53
2019-02-18T16:44:08.476Z,39.07
2019-02-18T16:46:36.486Z,41.43
2019-02-18T16:49:05.247Z,42.23
2019-02-18T16:51:34.860Z,42.53
2019-02-18T16:54:03.312Z,42.80
2019-02-18T16:56:31.174Z,44.10
2019-02-18T16:58:59.920Z,44.30
2019-02-18T17:01:27.982Z,45.67
2019-02-18T17:03:55.863Z,46.87
2019-02-18T17:06:23.965Z,44.20
2019-02-18T17:08:54.043Z,43.33
2019-02-18T17:11:22.114Z,43.27
2019-02-18T17:13:51.251Z,44.77
2019-02-18T17:16:19.523Z,48.83
2019-02-18T17:18:47.398Z,46.77
2019-02-18T17:21:17.278Z,51.73
2019-02-18T17:23:45.320Z,52.17
2019-02-18T17:26:13.292Z,51.57
2019-02-18T17:28:41.429Z,54.50
2019-02-18T17:31:09.859Z,54.00
2019-02-18T17:33:39.133Z,59.70
2019-02-18T17:36:08.030Z,59.83
2019-02-18T17:38:36.141Z,58.33
2019-02-18T17:41:04.186Z,66.67
2019-02-18T17:43:32.324Z,62.17
2019-02-18T17:46:00.256Z,54.60
2019-02-18T17:48:28.853Z,52.93
2019-02-18T17:50:56.859Z,58.30
2019-02-18T17:53:25.014Z,54.67
2019-02-18T17:55:53.057Z,56.73
2019-02-18T17:58:24.448Z,56.47
2019-02-18T18:00:54.221Z,54.67
2019-02-18T18:03:22.716Z,52.70
2019-02-18T18:05:51.271Z,54.63
2019-02-18T18:08:19.380Z,61.07
2019-02-18T18:10:47.424Z,61.30
2019-02-18T18:13:15.343Z,64.70
2019-02-18T18:15:44.000Z,64.30
2019-02-18T18:18:12.322Z,67.17
2019-02-18T18:20:42.289Z,64.87
2019-02-18T18:23:10.491Z,68.23
2019-02-18T18:25:40.717Z,64.87
2019-02-18T18:28:08.767Z,71.77
2019-02-18T18:30:37.148Z,71.00
2019-02-18T18:33:05.524Z,69.73
2019-02-18T18:35:34.128Z,63.73
2019-02-18T18:38:03.706Z,67.97
2019-02-18T18:40:32.104Z,73.07
2019-02-18T18:43:00.090Z,85.03
2019-02-18T18:45:29.217Z,82.33
2019-02-18T18:47:57.140Z,103.43
2019-02-18T18:50:25.857Z,93.23
2019-02-18T18:52:53.869Z,83.63
2019-02-18T18:55:25.085Z,78.87
2019-02-18T18:57:53.008Z,72.13
2019-02-18T19:00:23.173Z,76.13
2019-02-18T19:02:52.357Z,73.20
2019-02-18T19:05:20.763Z,67.77
2019-02-18T19:07:48.738Z,69.60
2019-02-18T19:10:18.773Z,67.13
2019-02-18T19:12:46.913Z,72.50
2019-02-18T19:15:15.126Z,71.70
2019-02-18T19:17:43.147Z,74.70
2019-02-18T19:20:11.777Z,71.40
2019-02-18T19:22:39.784Z,77.73
2019-02-18T19:25:08.034Z,90.10
2019-02-18T19:27:37.133Z,92.43
2019-02-18T19:30:06.875Z,79.10
2019-02-18T19:32:34.927Z,76.37
2019-02-18T19:35:03.623Z,68.53
2019-02-18T19:37:31.757Z,68.53
2019-02-18T19:39:59.787Z,69.00
2019-02-18T19:42:27.996Z,71.93
2019-02-18T19:44:56.086Z,68.10
2019-02-18T19:47:23.971Z,69.63
2019-02-18T19:49:52.995Z,72.00
2019-02-18T19:52:21.031Z,72.17
2019-02-18T19:54:48.920Z,73.03
2019-02-18T19:57:16.866Z,75.53
2019-02-18T19:59:44.889Z,76.73
2019-02-18T20:02:12.974Z,78.80
2019-02-18T20:04:41.080Z,81.73
2019-02-18T20:07:11.366Z,73.50
2019-02-18T20:09:41.624Z,76.73
2019-02-18T20:12:09.591Z,72.33
2019-02-18T20:14:37.536Z,70.50
2019-02-18T20:17:05.429Z,71.63
2019-02-18T20:19:33.448Z,75.40
2019-02-18T20:22:01.894Z,75.17
2019-02-18T20:24:29.998Z,73.67
2019-02-18T20:26:58.021Z,76.27
2019-02-18T20:29:26.030Z,79.67
2019-02-18T20:31:54.351Z,75.47
2019-02-18T20:34:22.395Z,77.30
2019-02-18T20:36:50.448Z,84.73
2019-02-18T20:39:18.529Z,78.57
2019-02-18T20:41:46.507Z,85.20
2019-02-18T20:44:14.933Z,86.37
2019-02-18T20:46:43.001Z,87.00
2019-02-18T20:49:10.962Z,82.10
2019-02-18T20:51:38.910Z,82.43
2019-02-18T20:54:07.415Z,82.60
2019-02-18T20:56:35.367Z,83.97
2019-02-18T20:59:03.461Z,81.97
2019-02-18T21:01:31.358Z,78.30
2019-02-18T21:04:01.354Z,81.50
2019-02-18T21:06:30.659Z,85.17
2019-02-18T21:08:58.621Z,80.63
2019-02-18T21:11:26.516Z,82.97
2019-02-18T21:13:54.504Z,74.77
2019-02-18T21:16:22.455Z,69.20
2019-02-18T21:18:50.583Z,66.00
2019-02-18T21:21:18.501Z,64.90
2019-02-18T21:23:48.893Z,65.27
2019-02-18T21:26:17.113Z,64.53
2019-02-18T21:28:45.033Z,67.50
2019-02-18T21:31:14.162Z,67.30
2019-02-18T21:33:42.239Z,65.13
2019-02-18T21:36:10.359Z,63.47
2019-02-18T21:38:38.364Z,60.00
2019-02-18T21:41:06.731Z,57.40
2019-02-18T21:43:34.975Z,58.07
2019-02-18T21:46:02.905Z,59.13
2019-02-18T21:48:31.056Z,58.07
2019-02-18T21:50:58.973Z,59.03
2019-02-18T21:53:26.944Z,59.47
2019-02-18T21:55:55.254Z,62.57
2019-02-18T21:58:23.687Z,66.13
2019-02-18T22:00:53.989Z,68.30
2019-02-18T22:03:23.103Z,68.40
2019-02-18T22:05:52.864Z,69.73
2019-02-18T22:08:20.786Z,72.63
2019-02-18T22:10:51.039Z,71.03
2019-02-18T22:13:21.301Z,72.47
2019-02-18T22:15:50.529Z,71.37
2019-02-18T22:18:20.487Z,69.37
2019-02-18T22:20:48.337Z,69.07
2019-02-18T22:23:16.270Z,67.10
2019-02-18T22:25:44.174Z,67.47
2019-02-18T22:28:12.097Z,64.23
2019-02-18T22:30:40.703Z,59.90
2019-02-18T22:33:10.981Z,57.90
2019-02-18T22:35:39.189Z,55.53
2019-02-18T22:38:07.753Z,60.40
2019-02-18T22:40:35.949Z,63.37
2019-02-18T22:43:06.153Z,59.43
2019-02-18T22:45:34.175Z,55.77
2019-02-18T22:48:03.390Z,49.80
2019-02-18T22:50:31.627Z,52.63
2019-02-18T22:53:00.131Z,50.53
2019-02-18T22:55:30.604Z,50.60
2019-02-18T22:58:01.445Z,49.47
2019-02-18T23:00:55.762Z,50.33
2019-02-18T23:03:26.832Z,46.30
2019-02-18T23:05:56.714Z,47.13
2019-02-18T23:08:25.089Z,46.30
2019-02-18T23:10:53.113Z,48.20
2019-02-18T23:13:21.823Z,48.23
2019-02-18T23:15:49.961Z,49.60
2019-02-18T23:18:18.139Z,46.87
2019-02-18T23:20:46.066Z,49.37
2019-02-18T23:23:15.984Z,49.80
2019-02-18T23:25:44.202Z,48.23
2019-02-18T23:28:12.718Z,49.60
2019-02-18T23:30:40.892Z,48.73
2019-02-18T23:33:11.276Z,49.93
2019-02-18T23:35:39.340Z,49.80
2019-02-18T23:38:07.683Z,46.67
2019-02-18T23:40:36.865Z,48.77
2019-02-18T23:43:04.979Z,48.23
2019-02-18T23:45:34.309Z,48.40
2019-02-18T23:48:02.775Z,49.00
2019-02-18T23:50:30.939Z,47.93
2019-02-18T23:53:00.507Z,44.90
2019-02-18T23:55:28.794Z,45.33
2019-02-18T23:57:56.839Z,41.70
